Dimapur Airport

Current Flights

Departures
Number Departure To Airline
 6E417 07:25  Kolkata  IndiGo
 6E417 07:25  Kolkata  IndiGo
 AI710 08:00  Kolkata  Air India
 6E417 07:25  Kolkata  IndiGo
 AI710 08:00  Kolkata  Air India
Arrivals
Number Arrival From Airline
 6E377 06:50  Kolkata  IndiGo
 6E377 06:50  Kolkata  IndiGo
 AI709 07:25  Kolkata  Air India
Info
Name: Dimapur Airport
Identifier:  DMU/VEMR
Local Time:  25. May 05:06
City
Dimapur
  India

Flights per Day
2 flights
Distance: 648km (403mi)
Punctuality
95% (0 flights per day delayed)
Delay Average: 13 minutes
Current Weather
 26 C (Humidity: 73%)
  7kt (12km/h / 8mph) from 340°
  Overcast at 9,000 feet (2,743 meter)
  3km (2 mi.)
 CB
 METAR VEMR 240600Z 34007KT 3500 -RA FEW008 BKN018 FEW025 CB OVC090 26/21 Q1008

Current Delays

Departures
N/A
Arrivals
N/A

Destinations

Top Destinations
Airport Flights
per week
Seats
per week
  Kolkata (CCU) 21 3,248 3 464

Airlines & Planes

Top Airlines
Airline Flights
per Day
Seats
per Day
  IndiGo 1 216
  Air India 1 248
Top Plane Types
Manufacturer Model Flights Seats
Airbus A319 1.7/day 248/day 248.13333333333333
Airbus A320 Neo 1.0/day 60/day 60.4
Airbus A320 0.9/day 156/day 156